sensor_id;sensor_type;location;lat;lon;timestamp;P1;durP1;ratioP1;P2;durP2;ratioP2
37655;SDS011;23498;50.958;3.124;2023-02-04T00:00:09;12.10;;;5.43;;
37655;SDS011;23498;50.958;3.124;2023-02-04T00:02:37;10.73;;;5.70;;
37655;SDS011;23498;50.958;3.124;2023-02-04T00:05:03;11.55;;;5.28;;
37655;SDS011;23498;50.958;3.124;2023-02-04T00:07:29;13.30;;;5.20;;
37655;SDS011;23498;50.958;3.124;2023-02-04T00:09:55;9.82;;;5.30;;
37655;SDS011;23498;50.958;3.124;2023-02-04T00:12:21;9.20;;;4.90;;
37655;SDS011;23498;50.958;3.124;2023-02-04T00:14:47;10.73;;;4.20;;
37655;SDS011;23498;50.958;3.124;2023-02-04T00:17:13;9.70;;;4.68;;
37655;SDS011;23498;50.958;3.124;2023-02-04T00:19:39;8.13;;;4.63;;
37655;SDS011;23498;50.958;3.124;2023-02-04T00:22:06;9.05;;;5.10;;
37655;SDS011;23498;50.958;3.124;2023-02-04T00:24:32;8.60;;;4.93;;
37655;SDS011;23498;50.958;3.124;2023-02-04T00:26:58;9.73;;;5.13;;
37655;SDS011;23498;50.958;3.124;2023-02-04T00:29:24;10.23;;;4.82;;
37655;SDS011;23498;50.958;3.124;2023-02-04T00:31:50;10.68;;;4.55;;
37655;SDS011;23498;50.958;3.124;2023-02-04T00:34:16;8.80;;;4.50;;
37655;SDS011;23498;50.958;3.124;2023-02-04T00:36:43;8.73;;;4.82;;
37655;SDS011;23498;50.958;3.124;2023-02-04T00:39:09;9.25;;;4.93;;
37655;SDS011;23498;50.958;3.124;2023-02-04T00:41:35;13.48;;;4.60;;
37655;SDS011;23498;50.958;3.124;2023-02-04T00:44:01;10.55;;;5.05;;
37655;SDS011;23498;50.958;3.124;2023-02-04T00:46:27;10.27;;;5.15;;
37655;SDS011;23498;50.958;3.124;2023-02-04T00:48:53;8.35;;;4.90;;
37655;SDS011;23498;50.958;3.124;2023-02-04T00:51:19;11.55;;;6.03;;
37655;SDS011;23498;50.958;3.124;2023-02-04T00:53:45;10.35;;;5.30;;
37655;SDS011;23498;50.958;3.124;2023-02-04T00:56:14;9.18;;;4.82;;
37655;SDS011;23498;50.958;3.124;2023-02-04T00:58:40;11.57;;;4.93;;
37655;SDS011;23498;50.958;3.124;2023-02-04T01:01:06;10.98;;;5.28;;
37655;SDS011;23498;50.958;3.124;2023-02-04T01:03:32;11.68;;;4.97;;
37655;SDS011;23498;50.958;3.124;2023-02-04T01:05:57;12.48;;;5.15;;
37655;SDS011;23498;50.958;3.124;2023-02-04T01:08:23;6.30;;;4.35;;
37655;SDS011;23498;50.958;3.124;2023-02-04T01:10:49;11.10;;;5.13;;
37655;SDS011;23498;50.958;3.124;2023-02-04T01:13:15;9.40;;;4.93;;
37655;SDS011;23498;50.958;3.124;2023-02-04T01:15:41;11.02;;;5.05;;
37655;SDS011;23498;50.958;3.124;2023-02-04T01:18:07;12.05;;;5.15;;
37655;SDS011;23498;50.958;3.124;2023-02-04T01:20:33;12.10;;;5.03;;
37655;SDS011;23498;50.958;3.124;2023-02-04T01:22:59;12.77;;;4.82;;
37655;SDS011;23498;50.958;3.124;2023-02-04T01:25:25;11.35;;;5.20;;
37655;SDS011;23498;50.958;3.124;2023-02-04T01:27:51;10.43;;;5.25;;
37655;SDS011;23498;50.958;3.124;2023-02-04T01:30:17;8.63;;;5.20;;
37655;SDS011;23498;50.958;3.124;2023-02-04T01:32:43;11.15;;;5.13;;
37655;SDS011;23498;50.958;3.124;2023-02-04T01:35:09;8.50;;;5.05;;
37655;SDS011;23498;50.958;3.124;2023-02-04T01:37:35;11.27;;;5.15;;
37655;SDS011;23498;50.958;3.124;2023-02-04T01:40:01;9.40;;;4.85;;
37655;SDS011;23498;50.958;3.124;2023-02-04T01:42:27;8.98;;;4.35;;
37655;SDS011;23498;50.958;3.124;2023-02-04T01:44:53;10.35;;;5.05;;
37655;SDS011;23498;50.958;3.124;2023-02-04T01:47:19;9.45;;;4.78;;
37655;SDS011;23498;50.958;3.124;2023-02-04T01:49:45;9.68;;;4.13;;
37655;SDS011;23498;50.958;3.124;2023-02-04T01:52:14;8.90;;;4.40;;
37655;SDS011;23498;50.958;3.124;2023-02-04T01:54:41;9.38;;;4.38;;
37655;SDS011;23498;50.958;3.124;2023-02-04T01:57:08;6.97;;;4.20;;
37655;SDS011;23498;50.958;3.124;2023-02-04T01:59:38;8.75;;;3.90;;
37655;SDS011;23498;50.958;3.124;2023-02-04T02:04:51;8.73;;;3.80;;
37655;SDS011;23498;50.958;3.124;2023-02-04T02:07:17;8.65;;;3.75;;
37655;SDS011;23498;50.958;3.124;2023-02-04T02:09:43;8.57;;;3.78;;
37655;SDS011;23498;50.958;3.124;2023-02-04T02:12:09;9.75;;;3.72;;
37655;SDS011;23498;50.958;3.124;2023-02-04T02:14:35;7.07;;;3.38;;
37655;SDS011;23498;50.958;3.124;2023-02-04T02:17:01;6.15;;;3.67;;
37655;SDS011;23498;50.958;3.124;2023-02-04T02:19:28;8.38;;;3.53;;
37655;SDS011;23498;50.958;3.124;2023-02-04T02:22:04;7.93;;;3.63;;
37655;SDS011;23498;50.958;3.124;2023-02-04T02:24:32;9.90;;;3.63;;
37655;SDS011;23498;50.958;3.124;2023-02-04T02:27:08;7.22;;;3.35;;
37655;SDS011;23498;50.958;3.124;2023-02-04T02:29:38;9.85;;;4.00;;
37655;SDS011;23498;50.958;3.124;2023-02-04T02:32:05;8.85;;;3.55;;
37655;SDS011;23498;50.958;3.124;2023-02-04T02:34:32;7.40;;;3.80;;
37655;SDS011;23498;50.958;3.124;2023-02-04T02:36:59;10.90;;;4.15;;
37655;SDS011;23498;50.958;3.124;2023-02-04T02:39:26;8.68;;;4.00;;
37655;SDS011;23498;50.958;3.124;2023-02-04T02:41:53;11.05;;;3.97;;
37655;SDS011;23498;50.958;3.124;2023-02-04T02:44:19;9.88;;;4.20;;
37655;SDS011;23498;50.958;3.124;2023-02-04T02:46:45;11.15;;;4.65;;
37655;SDS011;23498;50.958;3.124;2023-02-04T02:49:12;10.10;;;3.92;;
37655;SDS011;23498;50.958;3.124;2023-02-04T02:51:40;10.73;;;4.18;;
37655;SDS011;23498;50.958;3.124;2023-02-04T02:54:09;9.65;;;4.13;;
37655;SDS011;23498;50.958;3.124;2023-02-04T02:56:39;11.45;;;4.07;;
37655;SDS011;23498;50.958;3.124;2023-02-04T02:59:14;9.60;;;3.90;;
37655;SDS011;23498;50.958;3.124;2023-02-04T03:01:41;10.50;;;4.15;;
37655;SDS011;23498;50.958;3.124;2023-02-04T03:04:07;11.70;;;4.05;;
37655;SDS011;23498;50.958;3.124;2023-02-04T03:06:33;9.40;;;3.80;;
37655;SDS011;23498;50.958;3.124;2023-02-04T03:08:59;11.10;;;4.32;;
37655;SDS011;23498;50.958;3.124;2023-02-04T03:11:25;12.20;;;4.10;;
37655;SDS011;23498;50.958;3.124;2023-02-04T03:13:53;8.68;;;4.03;;
37655;SDS011;23498;50.958;3.124;2023-02-04T03:16:20;12.38;;;3.78;;
37655;SDS011;23498;50.958;3.124;2023-02-04T03:18:46;8.52;;;3.70;;
37655;SDS011;23498;50.958;3.124;2023-02-04T03:21:12;8.27;;;3.70;;
37655;SDS011;23498;50.958;3.124;2023-02-04T03:23:38;8.82;;;4.15;;
37655;SDS011;23498;50.958;3.124;2023-02-04T03:26:04;9.95;;;3.85;;
37655;SDS011;23498;50.958;3.124;2023-02-04T03:28:31;9.60;;;3.80;;
37655;SDS011;23498;50.958;3.124;2023-02-04T03:30:57;10.65;;;4.28;;
37655;SDS011;23498;50.958;3.124;2023-02-04T03:33:23;8.48;;;3.78;;
37655;SDS011;23498;50.958;3.124;2023-02-04T03:35:50;11.88;;;4.30;;
37655;SDS011;23498;50.958;3.124;2023-02-04T03:38:16;9.38;;;4.30;;
37655;SDS011;23498;50.958;3.124;2023-02-04T03:40:43;11.50;;;4.30;;
37655;SDS011;23498;50.958;3.124;2023-02-04T03:43:09;9.82;;;4.32;;
37655;SDS011;23498;50.958;3.124;2023-02-04T03:45:35;11.55;;;4.80;;
37655;SDS011;23498;50.958;3.124;2023-02-04T03:48:01;8.38;;;4.10;;
37655;SDS011;23498;50.958;3.124;2023-02-04T03:50:27;8.18;;;4.28;;
37655;SDS011;23498;50.958;3.124;2023-02-04T03:52:53;10.27;;;3.95;;
37655;SDS011;23498;50.958;3.124;2023-02-04T03:55:19;12.82;;;4.22;;
37655;SDS011;23498;50.958;3.124;2023-02-04T03:57:45;9.88;;;3.72;;
37655;SDS011;23498;50.958;3.124;2023-02-04T04:00:11;8.63;;;3.08;;
37655;SDS011;23498;50.958;3.124;2023-02-04T04:02:38;10.63;;;3.95;;
37655;SDS011;23498;50.958;3.124;2023-02-04T04:05:04;10.82;;;4.50;;
37655;SDS011;23498;50.958;3.124;2023-02-04T04:07:30;11.68;;;4.10;;
37655;SDS011;23498;50.958;3.124;2023-02-04T04:09:56;9.10;;;4.00;;
37655;SDS011;23498;50.958;3.124;2023-02-04T04:12:22;12.25;;;4.50;;
37655;SDS011;23498;50.958;3.124;2023-02-04T04:14:48;12.82;;;4.32;;
37655;SDS011;23498;50.958;3.124;2023-02-04T04:17:14;9.88;;;3.63;;
37655;SDS011;23498;50.958;3.124;2023-02-04T04:19:40;10.27;;;3.97;;
37655;SDS011;23498;50.958;3.124;2023-02-04T04:22:08;13.45;;;4.43;;
37655;SDS011;23498;50.958;3.124;2023-02-04T04:24:34;11.90;;;3.65;;
37655;SDS011;23498;50.958;3.124;2023-02-04T04:27:00;10.75;;;4.25;;
37655;SDS011;23498;50.958;3.124;2023-02-04T04:29:26;9.10;;;3.83;;
37655;SDS011;23498;50.958;3.124;2023-02-04T04:31:52;9.38;;;4.05;;
37655;SDS011;23498;50.958;3.124;2023-02-04T04:34:19;11.38;;;4.47;;
37655;SDS011;23498;50.958;3.124;2023-02-04T04:36:45;11.00;;;3.70;;
37655;SDS011;23498;50.958;3.124;2023-02-04T04:39:11;7.63;;;4.00;;
37655;SDS011;23498;50.958;3.124;2023-02-04T04:41:37;10.18;;;4.10;;
37655;SDS011;23498;50.958;3.124;2023-02-04T04:44:03;9.00;;;4.28;;
37655;SDS011;23498;50.958;3.124;2023-02-04T04:46:29;15.65;;;4.43;;
37655;SDS011;23498;50.958;3.124;2023-02-04T04:48:55;13.98;;;4.22;;
37655;SDS011;23498;50.958;3.124;2023-02-04T04:51:21;10.73;;;3.85;;
37655;SDS011;23498;50.958;3.124;2023-02-04T04:53:47;9.93;;;4.28;;
37655;SDS011;23498;50.958;3.124;2023-02-04T04:56:13;9.73;;;3.97;;
37655;SDS011;23498;50.958;3.124;2023-02-04T04:58:39;11.55;;;4.82;;
37655;SDS011;23498;50.958;3.124;2023-02-04T05:01:05;10.50;;;3.85;;
37655;SDS011;23498;50.958;3.124;2023-02-04T05:03:31;7.78;;;3.85;;
37655;SDS011;23498;50.958;3.124;2023-02-04T05:05:57;9.30;;;4.10;;
37655;SDS011;23498;50.958;3.124;2023-02-04T05:08:23;9.85;;;3.65;;
37655;SDS011;23498;50.958;3.124;2023-02-04T05:10:49;11.98;;;3.65;;
37655;SDS011;23498;50.958;3.124;2023-02-04T05:13:15;10.93;;;4.07;;
37655;SDS011;23498;50.958;3.124;2023-02-04T05:15:41;8.77;;;3.67;;
37655;SDS011;23498;50.958;3.124;2023-02-04T05:18:07;7.15;;;3.20;;
37655;SDS011;23498;50.958;3.124;2023-02-04T05:20:33;7.75;;;3.85;;
37655;SDS011;23498;50.958;3.124;2023-02-04T05:22:59;9.02;;;3.17;;
37655;SDS011;23498;50.958;3.124;2023-02-04T05:25:26;8.07;;;3.30;;
37655;SDS011;23498;50.958;3.124;2023-02-04T05:27:52;8.75;;;3.10;;
37655;SDS011;23498;50.958;3.124;2023-02-04T05:30:19;7.90;;;3.50;;
37655;SDS011;23498;50.958;3.124;2023-02-04T05:32:45;6.63;;;3.15;;
37655;SDS011;23498;50.958;3.124;2023-02-04T05:35:11;7.75;;;3.22;;
37655;SDS011;23498;50.958;3.124;2023-02-04T05:37:37;9.68;;;3.13;;
37655;SDS011;23498;50.958;3.124;2023-02-04T05:40:03;8.63;;;3.63;;
37655;SDS011;23498;50.958;3.124;2023-02-04T05:42:30;9.75;;;4.25;;
37655;SDS011;23498;50.958;3.124;2023-02-04T05:44:56;6.47;;;3.35;;
37655;SDS011;23498;50.958;3.124;2023-02-04T05:47:22;6.93;;;3.70;;
37655;SDS011;23498;50.958;3.124;2023-02-04T05:49:48;7.28;;;3.75;;
37655;SDS011;23498;50.958;3.124;2023-02-04T05:52:14;9.05;;;3.67;;
37655;SDS011;23498;50.958;3.124;2023-02-04T05:54:39;12.23;;;3.80;;
37655;SDS011;23498;50.958;3.124;2023-02-04T05:57:06;10.55;;;5.28;;
37655;SDS011;23498;50.958;3.124;2023-02-04T05:59:32;11.05;;;5.32;;
37655;SDS011;23498;50.958;3.124;2023-02-04T06:01:58;10.73;;;5.00;;
37655;SDS011;23498;50.958;3.124;2023-02-04T06:04:24;11.88;;;4.93;;
37655;SDS011;23498;50.958;3.124;2023-02-04T06:06:50;13.63;;;5.50;;
37655;SDS011;23498;50.958;3.124;2023-02-04T06:09:16;14.77;;;5.85;;
37655;SDS011;23498;50.958;3.124;2023-02-04T06:11:42;14.60;;;4.88;;
37655;SDS011;23498;50.958;3.124;2023-02-04T06:14:08;7.28;;;4.03;;
37655;SDS011;23498;50.958;3.124;2023-02-04T06:16:34;9.02;;;4.20;;
37655;SDS011;23498;50.958;3.124;2023-02-04T06:19:01;11.60;;;4.63;;
37655;SDS011;23498;50.958;3.124;2023-02-04T06:21:27;8.95;;;3.83;;
37655;SDS011;23498;50.958;3.124;2023-02-04T06:23:53;9.88;;;4.72;;
37655;SDS011;23498;50.958;3.124;2023-02-04T06:26:18;10.75;;;4.60;;
37655;SDS011;23498;50.958;3.124;2023-02-04T06:28:45;9.90;;;4.40;;
37655;SDS011;23498;50.958;3.124;2023-02-04T06:31:10;11.27;;;4.25;;
37655;SDS011;23498;50.958;3.124;2023-02-04T06:33:36;11.70;;;4.00;;
37655;SDS011;23498;50.958;3.124;2023-02-04T06:36:03;7.60;;;3.85;;
37655;SDS011;23498;50.958;3.124;2023-02-04T06:38:29;11.55;;;4.50;;
37655;SDS011;23498;50.958;3.124;2023-02-04T06:40:55;9.85;;;4.72;;
37655;SDS011;23498;50.958;3.124;2023-02-04T06:43:21;8.70;;;4.70;;
37655;SDS011;23498;50.958;3.124;2023-02-04T06:45:49;9.90;;;4.82;;
37655;SDS011;23498;50.958;3.124;2023-02-04T06:48:15;9.57;;;5.03;;
37655;SDS011;23498;50.958;3.124;2023-02-04T06:50:41;9.80;;;5.35;;
37655;SDS011;23498;50.958;3.124;2023-02-04T06:53:07;13.85;;;5.57;;
37655;SDS011;23498;50.958;3.124;2023-02-04T06:55:33;8.70;;;5.68;;
37655;SDS011;23498;50.958;3.124;2023-02-04T06:57:59;12.80;;;5.55;;
37655;SDS011;23498;50.958;3.124;2023-02-04T07:00:26;14.05;;;5.85;;
37655;SDS011;23498;50.958;3.124;2023-02-04T07:02:52;11.52;;;6.18;;
37655;SDS011;23498;50.958;3.124;2023-02-04T07:05:18;11.80;;;6.05;;
37655;SDS011;23498;50.958;3.124;2023-02-04T07:07:44;10.98;;;6.05;;
37655;SDS011;23498;50.958;3.124;2023-02-04T07:10:10;13.30;;;6.13;;
37655;SDS011;23498;50.958;3.124;2023-02-04T07:12:37;14.95;;;7.22;;
37655;SDS011;23498;50.958;3.124;2023-02-04T07:15:03;10.63;;;6.82;;
37655;SDS011;23498;50.958;3.124;2023-02-04T07:17:29;12.15;;;7.30;;
37655;SDS011;23498;50.958;3.124;2023-02-04T07:19:55;17.15;;;7.50;;
37655;SDS011;23498;50.958;3.124;2023-02-04T07:22:21;15.10;;;7.80;;
37655;SDS011;23498;50.958;3.124;2023-02-04T07:24:47;14.25;;;7.60;;
37655;SDS011;23498;50.958;3.124;2023-02-04T07:27:13;16.55;;;8.85;;
37655;SDS011;23498;50.958;3.124;2023-02-04T07:29:39;14.80;;;8.27;;
37655;SDS011;23498;50.958;3.124;2023-02-04T07:32:05;18.05;;;8.55;;
37655;SDS011;23498;50.958;3.124;2023-02-04T07:34:31;15.43;;;8.40;;
37655;SDS011;23498;50.958;3.124;2023-02-04T07:36:57;14.60;;;8.85;;
37655;SDS011;23498;50.958;3.124;2023-02-04T07:39:23;14.75;;;7.93;;
37655;SDS011;23498;50.958;3.124;2023-02-04T07:41:49;13.30;;;7.80;;
37655;SDS011;23498;50.958;3.124;2023-02-04T07:44:15;21.15;;;8.15;;
37655;SDS011;23498;50.958;3.124;2023-02-04T07:46:41;19.67;;;8.85;;
37655;SDS011;23498;50.958;3.124;2023-02-04T07:49:07;15.23;;;8.27;;
37655;SDS011;23498;50.958;3.124;2023-02-04T07:51:33;14.75;;;8.43;;
37655;SDS011;23498;50.958;3.124;2023-02-04T07:53:59;17.77;;;9.15;;
37655;SDS011;23498;50.958;3.124;2023-02-04T07:56:25;17.95;;;8.32;;
37655;SDS011;23498;50.958;3.124;2023-02-04T07:58:51;14.55;;;8.52;;
37655;SDS011;23498;50.958;3.124;2023-02-04T08:01:17;16.80;;;8.70;;
37655;SDS011;23498;50.958;3.124;2023-02-04T08:03:43;16.05;;;8.35;;
37655;SDS011;23498;50.958;3.124;2023-02-04T08:06:09;17.48;;;9.00;;
37655;SDS011;23498;50.958;3.124;2023-02-04T08:08:35;17.10;;;8.30;;
37655;SDS011;23498;50.958;3.124;2023-02-04T08:11:01;15.68;;;8.00;;
37655;SDS011;23498;50.958;3.124;2023-02-04T08:13:27;14.23;;;8.45;;
37655;SDS011;23498;50.958;3.124;2023-02-04T08:15:53;17.52;;;8.60;;
37655;SDS011;23498;50.958;3.124;2023-02-04T08:18:19;14.88;;;8.45;;
37655;SDS011;23498;50.958;3.124;2023-02-04T08:20:45;13.98;;;8.25;;
37655;SDS011;23498;50.958;3.124;2023-02-04T08:23:11;12.43;;;7.80;;
37655;SDS011;23498;50.958;3.124;2023-02-04T08:25:37;15.55;;;8.40;;
37655;SDS011;23498;50.958;3.124;2023-02-04T08:28:04;14.43;;;8.43;;
37655;SDS011;23498;50.958;3.124;2023-02-04T08:30:30;17.30;;;8.32;;
37655;SDS011;23498;50.958;3.124;2023-02-04T08:32:56;15.90;;;8.25;;
37655;SDS011;23498;50.958;3.124;2023-02-04T08:35:22;16.35;;;8.40;;
37655;SDS011;23498;50.958;3.124;2023-02-04T08:37:47;15.05;;;8.63;;
37655;SDS011;23498;50.958;3.124;2023-02-04T08:40:13;19.15;;;8.75;;
37655;SDS011;23498;50.958;3.124;2023-02-04T08:42:40;14.93;;;8.05;;
37655;SDS011;23498;50.958;3.124;2023-02-04T08:45:06;14.65;;;8.02;;
37655;SDS011;23498;50.958;3.124;2023-02-04T08:47:32;16.48;;;8.30;;
37655;SDS011;23498;50.958;3.124;2023-02-04T08:49:58;12.57;;;7.72;;
37655;SDS011;23498;50.958;3.124;2023-02-04T08:52:24;13.30;;;7.63;;
37655;SDS011;23498;50.958;3.124;2023-02-04T08:54:50;14.50;;;7.80;;
37655;SDS011;23498;50.958;3.124;2023-02-04T08:57:16;15.10;;;7.00;;
37655;SDS011;23498;50.958;3.124;2023-02-04T08:59:42;12.32;;;7.07;;
37655;SDS011;23498;50.958;3.124;2023-02-04T09:02:09;12.93;;;6.88;;
37655;SDS011;23498;50.958;3.124;2023-02-04T09:04:35;12.80;;;6.78;;
37655;SDS011;23498;50.958;3.124;2023-02-04T09:07:01;15.32;;;7.15;;
37655;SDS011;23498;50.958;3.124;2023-02-04T09:09:27;15.65;;;7.38;;
37655;SDS011;23498;50.958;3.124;2023-02-04T09:11:53;11.40;;;6.55;;
37655;SDS011;23498;50.958;3.124;2023-02-04T09:14:19;15.73;;;8.30;;
37655;SDS011;23498;50.958;3.124;2023-02-04T09:16:45;12.02;;;7.32;;
37655;SDS011;23498;50.958;3.124;2023-02-04T09:19:13;13.35;;;7.28;;
37655;SDS011;23498;50.958;3.124;2023-02-04T09:21:40;13.55;;;7.72;;
37655;SDS011;23498;50.958;3.124;2023-02-04T09:24:06;14.73;;;7.22;;
37655;SDS011;23498;50.958;3.124;2023-02-04T09:26:32;10.20;;;7.00;;
37655;SDS011;23498;50.958;3.124;2023-02-04T09:28:58;13.80;;;6.47;;
37655;SDS011;23498;50.958;3.124;2023-02-04T09:31:24;11.63;;;6.47;;
37655;SDS011;23498;50.958;3.124;2023-02-04T09:33:50;13.35;;;6.70;;
37655;SDS011;23498;50.958;3.124;2023-02-04T09:36:16;15.07;;;7.63;;
37655;SDS011;23498;50.958;3.124;2023-02-04T09:38:42;11.77;;;6.78;;
37655;SDS011;23498;50.958;3.124;2023-02-04T09:41:09;11.10;;;6.93;;
37655;SDS011;23498;50.958;3.124;2023-02-04T09:43:40;13.43;;;7.35;;
37655;SDS011;23498;50.958;3.124;2023-02-04T09:46:18;12.52;;;7.18;;
37655;SDS011;23498;50.958;3.124;2023-02-04T09:48:44;10.30;;;6.00;;
37655;SDS011;23498;50.958;3.124;2023-02-04T09:51:17;10.98;;;5.88;;
37655;SDS011;23498;50.958;3.124;2023-02-04T09:53:43;11.65;;;6.63;;
37655;SDS011;23498;50.958;3.124;2023-02-04T09:56:10;13.77;;;6.55;;
37655;SDS011;23498;50.958;3.124;2023-02-04T09:58:38;11.48;;;6.75;;
37655;SDS011;23498;50.958;3.124;2023-02-04T10:01:17;11.07;;;6.53;;
37655;SDS011;23498;50.958;3.124;2023-02-04T10:03:44;12.65;;;6.95;;
37655;SDS011;23498;50.958;3.124;2023-02-04T10:06:18;11.82;;;6.22;;
37655;SDS011;23498;50.958;3.124;2023-02-04T10:08:48;9.65;;;6.22;;
37655;SDS011;23498;50.958;3.124;2023-02-04T10:11:15;15.52;;;8.73;;
37655;SDS011;23498;50.958;3.124;2023-02-04T10:13:46;14.10;;;7.20;;
37655;SDS011;23498;50.958;3.124;2023-02-04T10:16:17;12.93;;;6.80;;
37655;SDS011;23498;50.958;3.124;2023-02-04T10:18:45;17.27;;;11.27;;
37655;SDS011;23498;50.958;3.124;2023-02-04T10:21:15;14.07;;;8.98;;
37655;SDS011;23498;50.958;3.124;2023-02-04T10:23:42;25.52;;;18.05;;
37655;SDS011;23498;50.958;3.124;2023-02-04T10:26:10;12.07;;;6.80;;
37655;SDS011;23498;50.958;3.124;2023-02-04T10:28:36;15.55;;;10.10;;
37655;SDS011;23498;50.958;3.124;2023-02-04T10:31:04;12.30;;;8.10;;
37655;SDS011;23498;50.958;3.124;2023-02-04T10:33:32;15.40;;;7.63;;
37655;SDS011;23498;50.958;3.124;2023-02-04T10:36:01;15.88;;;7.97;;
37655;SDS011;23498;50.958;3.124;2023-02-04T10:38:27;17.38;;;7.97;;
37655;SDS011;23498;50.958;3.124;2023-02-04T10:41:00;13.05;;;7.13;;
37655;SDS011;23498;50.958;3.124;2023-02-04T10:43:26;13.43;;;8.27;;
37655;SDS011;23498;50.958;3.124;2023-02-04T10:46:00;12.63;;;6.05;;
37655;SDS011;23498;50.958;3.124;2023-02-04T10:48:27;12.40;;;6.68;;
37655;SDS011;23498;50.958;3.124;2023-02-04T10:50:54;13.93;;;8.43;;
37655;SDS011;23498;50.958;3.124;2023-02-04T10:53:22;9.50;;;5.70;;
37655;SDS011;23498;50.958;3.124;2023-02-04T10:56:20;11.90;;;5.63;;
37655;SDS011;23498;50.958;3.124;2023-02-04T10:58:47;11.45;;;5.70;;
37655;SDS011;23498;50.958;3.124;2023-02-04T11:01:13;9.63;;;6.13;;
37655;SDS011;23498;50.958;3.124;2023-02-04T11:03:40;11.63;;;6.10;;
37655;SDS011;23498;50.958;3.124;2023-02-04T11:06:10;12.55;;;5.85;;
37655;SDS011;23498;50.958;3.124;2023-02-04T11:08:36;12.45;;;6.47;;
37655;SDS011;23498;50.958;3.124;2023-02-04T11:14:00;10.32;;;5.22;;
37655;SDS011;23498;50.958;3.124;2023-02-04T11:16:29;10.88;;;5.32;;
37655;SDS011;23498;50.958;3.124;2023-02-04T11:18:58;9.13;;;5.22;;
37655;SDS011;23498;50.958;3.124;2023-02-04T11:26:34;9.73;;;4.85;;
37655;SDS011;23498;50.958;3.124;2023-02-04T11:31:28;9.77;;;4.60;;
37655;SDS011;23498;50.958;3.124;2023-02-04T11:39:33;8.48;;;4.50;;
37655;SDS011;23498;50.958;3.124;2023-02-04T11:42:01;9.18;;;4.50;;
37655;SDS011;23498;50.958;3.124;2023-02-04T11:44:27;10.20;;;4.22;;
37655;SDS011;23498;50.958;3.124;2023-02-04T11:46:53;7.88;;;4.18;;
37655;SDS011;23498;50.958;3.124;2023-02-04T11:49:20;9.02;;;5.05;;
37655;SDS011;23498;50.958;3.124;2023-02-04T11:51:47;11.57;;;4.75;;
37655;SDS011;23498;50.958;3.124;2023-02-04T11:54:14;8.27;;;4.55;;
37655;SDS011;23498;50.958;3.124;2023-02-04T11:56:43;9.18;;;4.50;;
37655;SDS011;23498;50.958;3.124;2023-02-04T11:59:10;8.73;;;4.55;;
37655;SDS011;23498;50.958;3.124;2023-02-04T12:01:36;8.95;;;4.70;;
37655;SDS011;23498;50.958;3.124;2023-02-04T12:04:04;8.77;;;4.40;;
37655;SDS011;23498;50.958;3.124;2023-02-04T12:06:35;9.05;;;5.32;;
37655;SDS011;23498;50.958;3.124;2023-02-04T12:09:05;10.52;;;5.13;;
37655;SDS011;23498;50.958;3.124;2023-02-04T12:11:32;22.52;;;12.75;;
37655;SDS011;23498;50.958;3.124;2023-02-04T12:14:08;48.15;;;23.38;;
37655;SDS011;23498;50.958;3.124;2023-02-04T12:16:49;27.35;;;13.63;;
37655;SDS011;23498;50.958;3.124;2023-02-04T12:19:15;20.00;;;10.32;;
37655;SDS011;23498;50.958;3.124;2023-02-04T12:21:42;14.38;;;9.82;;
37655;SDS011;23498;50.958;3.124;2023-02-04T12:24:08;11.18;;;5.47;;
37655;SDS011;23498;50.958;3.124;2023-02-04T12:26:34;8.50;;;4.63;;
37655;SDS011;23498;50.958;3.124;2023-02-04T12:29:00;10.98;;;6.82;;
37655;SDS011;23498;50.958;3.124;2023-02-04T12:31:29;14.43;;;8.02;;
37655;SDS011;23498;50.958;3.124;2023-02-04T12:33:55;9.32;;;5.55;;
37655;SDS011;23498;50.958;3.124;2023-02-04T12:36:21;8.23;;;4.65;;
37655;SDS011;23498;50.958;3.124;2023-02-04T12:38:48;8.93;;;4.88;;
37655;SDS011;23498;50.958;3.124;2023-02-04T12:41:14;10.50;;;4.78;;
37655;SDS011;23498;50.958;3.124;2023-02-04T12:43:40;9.32;;;5.07;;
37655;SDS011;23498;50.958;3.124;2023-02-04T12:46:06;8.32;;;4.82;;
37655;SDS011;23498;50.958;3.124;2023-02-04T12:48:32;9.85;;;5.30;;
37655;SDS011;23498;50.958;3.124;2023-02-04T12:50:58;9.93;;;4.72;;
37655;SDS011;23498;50.958;3.124;2023-02-04T12:53:24;9.82;;;6.03;;
37655;SDS011;23498;50.958;3.124;2023-02-04T12:55:50;10.23;;;5.82;;
37655;SDS011;23498;50.958;3.124;2023-02-04T12:58:16;11.30;;;6.13;;
37655;SDS011;23498;50.958;3.124;2023-02-04T13:00:42;10.88;;;6.95;;
37655;SDS011;23498;50.958;3.124;2023-02-04T13:03:08;12.75;;;7.65;;
37655;SDS011;23498;50.958;3.124;2023-02-04T13:05:34;10.85;;;6.43;;
37655;SDS011;23498;50.958;3.124;2023-02-04T13:08:01;11.50;;;7.85;;
37655;SDS011;23498;50.958;3.124;2023-02-04T13:10:27;13.85;;;7.60;;
37655;SDS011;23498;50.958;3.124;2023-02-04T13:12:52;18.70;;;9.73;;
37655;SDS011;23498;50.958;3.124;2023-02-04T13:15:18;12.27;;;7.60;;
37655;SDS011;23498;50.958;3.124;2023-02-04T13:17:44;15.13;;;8.70;;
37655;SDS011;23498;50.958;3.124;2023-02-04T13:20:11;13.32;;;6.70;;
37655;SDS011;23498;50.958;3.124;2023-02-04T13:22:37;10.82;;;6.57;;
37655;SDS011;23498;50.958;3.124;2023-02-04T13:25:03;11.77;;;7.40;;
37655;SDS011;23498;50.958;3.124;2023-02-04T13:27:29;16.27;;;10.13;;
37655;SDS011;23498;50.958;3.124;2023-02-04T13:29:56;10.00;;;6.22;;
37655;SDS011;23498;50.958;3.124;2023-02-04T13:32:22;12.10;;;6.40;;
37655;SDS011;23498;50.958;3.124;2023-02-04T13:34:48;11.32;;;6.40;;
37655;SDS011;23498;50.958;3.124;2023-02-04T13:37:14;10.65;;;6.32;;
37655;SDS011;23498;50.958;3.124;2023-02-04T13:39:40;11.68;;;5.97;;
37655;SDS011;23498;50.958;3.124;2023-02-04T13:42:06;10.98;;;6.82;;
37655;SDS011;23498;50.958;3.124;2023-02-04T13:44:32;13.10;;;6.53;;
37655;SDS011;23498;50.958;3.124;2023-02-04T13:46:58;14.32;;;6.45;;
37655;SDS011;23498;50.958;3.124;2023-02-04T13:49:24;12.82;;;6.47;;
37655;SDS011;23498;50.958;3.124;2023-02-04T13:51:50;13.35;;;6.75;;
37655;SDS011;23498;50.958;3.124;2023-02-04T13:54:16;14.07;;;6.97;;
37655;SDS011;23498;50.958;3.124;2023-02-04T13:56:42;12.32;;;6.80;;
37655;SDS011;23498;50.958;3.124;2023-02-04T13:59:08;14.73;;;7.00;;
37655;SDS011;23498;50.958;3.124;2023-02-04T14:01:34;13.73;;;7.15;;
37655;SDS011;23498;50.958;3.124;2023-02-04T14:04:01;16.45;;;7.75;;
37655;SDS011;23498;50.958;3.124;2023-02-04T14:06:27;14.00;;;6.47;;
37655;SDS011;23498;50.958;3.124;2023-02-04T14:09:00;16.45;;;7.50;;
37655;SDS011;23498;50.958;3.124;2023-02-04T14:11:27;13.00;;;6.78;;
37655;SDS011;23498;50.958;3.124;2023-02-04T14:13:53;15.32;;;7.68;;
37655;SDS011;23498;50.958;3.124;2023-02-04T14:16:19;14.20;;;7.60;;
37655;SDS011;23498;50.958;3.124;2023-02-04T14:18:45;14.73;;;7.80;;
37655;SDS011;23498;50.958;3.124;2023-02-04T14:21:11;17.05;;;8.18;;
37655;SDS011;23498;50.958;3.124;2023-02-04T14:23:37;15.77;;;8.13;;
37655;SDS011;23498;50.958;3.124;2023-02-04T14:26:03;14.93;;;7.50;;
37655;SDS011;23498;50.958;3.124;2023-02-04T14:28:29;15.60;;;8.45;;
37655;SDS011;23498;50.958;3.124;2023-02-04T14:30:55;14.05;;;7.70;;
37655;SDS011;23498;50.958;3.124;2023-02-04T14:33:21;15.13;;;7.97;;
37655;SDS011;23498;50.958;3.124;2023-02-04T14:35:47;16.40;;;7.95;;
37655;SDS011;23498;50.958;3.124;2023-02-04T14:38:13;15.25;;;7.97;;
37655;SDS011;23498;50.958;3.124;2023-02-04T14:40:41;15.45;;;7.20;;
37655;SDS011;23498;50.958;3.124;2023-02-04T14:43:08;17.50;;;7.53;;
37655;SDS011;23498;50.958;3.124;2023-02-04T14:45:37;15.10;;;7.03;;
37655;SDS011;23498;50.958;3.124;2023-02-04T14:48:04;16.85;;;7.13;;
37655;SDS011;23498;50.958;3.124;2023-02-04T14:50:30;12.40;;;6.95;;
37655;SDS011;23498;50.958;3.124;2023-02-04T14:52:56;13.93;;;6.65;;